Terminal Aerodrome Forecast
Issued by NWS Charleston, WV

Current Version | Previous Version | Text Only | Print | Product List | Glossary Off
Versions: 1 2 3 4 5 6 7 8 9 10 11 12 13 14 15 16 17 18 19 20 21 22 23 24 25 26 27 28 29 30 31 32 33

000
FTUS41 KRLX 220007 CCA
TAFCRW
TAF COR
KCRW 220007Z 2200/2224 31007KT 2SM BR FEW008 BKN025
     FM220100 30005KT 4SM BR SCT001 BKN025
     FM220600 00000KT 2SM BR SCT001 SCT030
     FM221200 25004KT 5SM BR FEW001 FEW030
     FM221300 25006KT P6SM FEW035=

USA.gov is the U.S. government's official web portal to all federal, state and local government web resources and services.